createdAt,value
2019-04-26T00:01:52.440Z,13.50
2019-04-26T00:04:23.366Z,13.50
2019-04-26T00:06:52.369Z,13.40
2019-04-26T00:09:23.256Z,13.40
2019-04-26T00:12:11.196Z,13.40
2019-04-26T00:14:42.387Z,13.30
2019-04-26T00:17:13.423Z,13.30
2019-04-26T00:19:42.836Z,13.20
2019-04-26T00:22:12.961Z,13.10
2019-04-26T00:24:42.462Z,13.10
2019-04-26T00:27:11.473Z,13.00
2019-04-26T00:29:40.433Z,12.90
2019-04-26T00:32:09.397Z,12.90
2019-04-26T00:34:39.076Z,12.90
2019-04-26T00:37:08.083Z,12.80
2019-04-26T00:39:37.126Z,12.70
2019-04-26T00:42:06.283Z,12.70
2019-04-26T00:44:36.496Z,12.70
2019-04-26T00:47:06.063Z,12.60
2019-04-26T00:49:43.411Z,12.60
2019-04-26T00:52:06.712Z,12.60
2019-04-26T00:54:35.986Z,12.50
2019-04-26T00:57:05.864Z,12.50
2019-04-26T00:59:36.340Z,12.50
2019-04-26T01:02:16.801Z,12.40
2019-04-26T01:04:45.750Z,12.40
2019-04-26T01:07:15.661Z,12.40
2019-04-26T01:09:45.572Z,12.30
2019-04-26T01:12:15.445Z,12.30
2019-04-26T01:14:45.201Z,12.30
2019-04-26T01:17:14.250Z,12.30
2019-04-26T01:19:47.565Z,12.20
2019-04-26T01:22:19.604Z,12.20
2019-04-26T01:24:50.705Z,12.20
2019-04-26T01:27:23.364Z,12.20
2019-04-26T01:29:55.428Z,12.10
2019-04-26T01:32:26.129Z,12.10
2019-04-26T01:34:56.255Z,12.10
2019-04-26T01:37:26.712Z,12.10
2019-04-26T01:40:00.344Z,12.00
2019-04-26T01:42:36.613Z,11.90
2019-04-26T01:45:23.855Z,11.80
2019-04-26T01:47:56.051Z,11.80
2019-04-26T01:50:27.382Z,11.80
2019-04-26T01:52:57.587Z,11.70
2019-04-26T01:55:29.225Z,11.60
2019-04-26T01:58:01.586Z,11.60
2019-04-26T02:00:45.166Z,11.50
2019-04-26T02:03:15.922Z,11.50
2019-04-26T02:05:45.007Z,11.50
2019-04-26T02:08:14.102Z,11.40
2019-04-26T02:10:43.278Z,11.40
2019-04-26T02:13:12.373Z,11.40
2019-04-26T02:15:41.431Z,11.40
2019-04-26T02:18:10.461Z,11.30
2019-04-26T02:21:01.073Z,11.20
2019-04-26T02:23:32.113Z,11.20
2019-04-26T02:26:18.770Z,11.10
2019-04-26T02:28:48.563Z,11.10
2019-04-26T02:31:17.861Z,11.00
2019-04-26T02:33:47.040Z,11.00
2019-04-26T02:36:16.326Z,10.90
2019-04-26T02:38:46.374Z,10.90
2019-04-26T02:41:15.674Z,10.80
2019-04-26T02:43:47.734Z,10.70
2019-04-26T02:46:20.733Z,10.70
2019-04-26T02:49:09.023Z,10.60
2019-04-26T02:51:41.033Z,10.60
2019-04-26T02:54:30.961Z,10.50
2019-04-26T02:57:02.234Z,10.50
2019-04-26T02:59:36.375Z,10.40
2019-04-26T03:02:08.067Z,10.50
2019-04-26T03:04:40.112Z,10.60
2019-04-26T03:07:12.151Z,10.60
2019-04-26T03:09:44.335Z,10.60
2019-04-26T03:12:16.357Z,10.50
2019-04-26T03:15:12.144Z,10.50
2019-04-26T03:17:38.142Z,10.40
2019-04-26T03:20:21.288Z,10.30
2019-04-26T03:23:07.988Z,10.30
2019-04-26T03:25:40.636Z,10.30
2019-04-26T03:28:25.338Z,10.30
2019-04-26T03:31:00.060Z,10.30
2019-04-26T03:33:42.100Z,10.30
2019-04-26T03:36:25.145Z,10.30
2019-04-26T03:39:13.108Z,10.30
2019-04-26T03:42:02.778Z,10.30
2019-04-26T03:44:38.999Z,10.40
2019-04-26T03:47:11.523Z,10.40
2019-04-26T03:49:54.354Z,10.50
2019-04-26T03:52:28.690Z,10.50
2019-04-26T03:55:27.002Z,10.40
2019-04-26T03:58:15.460Z,10.40
2019-04-26T04:01:03.168Z,10.40
2019-04-26T04:03:41.734Z,10.40
2019-04-26T04:06:14.647Z,10.40
2019-04-26T04:08:58.547Z,10.30
2019-04-26T04:11:48.961Z,10.30
2019-04-26T04:14:41.901Z,10.30
2019-04-26T04:17:23.829Z,10.30
2019-04-26T04:20:12.030Z,10.40
2019-04-26T04:22:45.870Z,10.50
2019-04-26T04:25:23.569Z,10.60
2019-04-26T04:27:55.611Z,10.70
2019-04-26T04:30:30.619Z,10.70
2019-04-26T04:33:11.740Z,10.70
2019-04-26T04:35:49.734Z,10.70
2019-04-26T04:38:42.717Z,10.70
2019-04-26T04:41:27.302Z,10.60
2019-04-26T04:44:10.048Z,10.60
2019-04-26T04:47:01.696Z,10.60
2019-04-26T04:50:01.894Z,10.60
2019-04-26T04:52:34.043Z,10.60
2019-04-26T04:55:26.549Z,10.60
2019-04-26T04:58:02.487Z,10.60
2019-04-26T05:01:01.719Z,10.60
2019-04-26T05:03:46.901Z,10.60
2019-04-26T05:06:45.006Z,10.70
2019-04-26T05:09:19.901Z,10.80
2019-04-26T05:12:11.147Z,10.80
2019-04-26T05:14:46.213Z,10.90
2019-04-26T05:17:34.506Z,10.90
2019-04-26T05:20:18.226Z,10.90
2019-04-26T05:23:23.218Z,10.90
2019-04-26T05:25:59.287Z,10.90
2019-04-26T05:28:51.657Z,11.00
2019-04-26T05:31:56.605Z,11.00
2019-04-26T05:34:52.879Z,11.00
2019-04-26T05:37:39.838Z,11.10
2019-04-26T05:40:14.729Z,11.20
2019-04-26T05:43:19.661Z,11.30
2019-04-26T05:45:56.138Z,11.40
2019-04-26T05:48:38.707Z,11.50
2019-04-26T05:51:34.690Z,11.50
2019-04-26T05:54:20.168Z,11.50
2019-04-26T05:56:54.261Z,11.50
2019-04-26T05:59:43.050Z,11.50
2019-04-26T06:02:46.904Z,11.40
2019-04-26T06:05:41.150Z,11.50
2019-04-26T06:08:55.318Z,11.50
2019-04-26T06:11:37.755Z,11.60
2019-04-26T06:14:14.038Z,11.60
2019-04-26T06:16:53.403Z,11.70
2019-04-26T06:19:51.967Z,11.80
2019-04-26T06:22:36.658Z,11.80
2019-04-26T06:25:22.100Z,11.90
2019-04-26T06:28:02.718Z,11.90
2019-04-26T06:30:45.007Z,11.90
2019-04-26T06:33:15.256Z,12.00
2019-04-26T06:35:48.521Z,12.00
2019-04-26T06:38:50.020Z,12.00
2019-04-26T06:41:39.922Z,12.10
2019-04-26T06:44:16.502Z,12.10
2019-04-26T06:46:52.893Z,12.10
2019-04-26T06:49:35.136Z,12.10
2019-04-26T06:52:18.770Z,12.10
2019-04-26T06:54:51.173Z,12.20
2019-04-26T06:58:01.112Z,12.10
2019-04-26T07:00:40.475Z,12.20
2019-04-26T07:03:39.636Z,12.30
2019-04-26T07:06:12.150Z,12.40
2019-04-26T07:09:02.714Z,12.40
2019-04-26T07:12:10.116Z,12.40
2019-04-26T07:14:58.097Z,12.40
2019-04-26T07:17:41.867Z,12.30
2019-04-26T07:20:23.291Z,12.30
2019-04-26T07:23:27.772Z,12.30
2019-04-26T07:26:16.063Z,12.30
2019-04-26T07:29:06.957Z,12.40
2019-04-26T07:31:41.948Z,12.40
2019-04-26T07:34:24.651Z,12.50
2019-04-26T07:37:08.870Z,12.50
2019-04-26T07:39:51.764Z,12.50
2019-04-26T07:42:42.981Z,12.50
2019-04-26T07:45:33.192Z,12.40
2019-04-26T07:48:35.386Z,12.40
2019-04-26T07:51:19.109Z,12.30
2019-04-26T07:53:56.932Z,12.20
2019-04-26T07:56:48.369Z,12.20
2019-04-26T07:59:34.821Z,12.20
2019-04-26T08:02:11.212Z,12.00
2019-04-26T08:04:43.384Z,11.90
2019-04-26T08:07:27.165Z,11.80
2019-04-26T08:10:05.983Z,11.80
2019-04-26T08:12:37.452Z,11.80
2019-04-26T08:15:30.139Z,11.80
2019-04-26T08:18:03.853Z,11.80
2019-04-26T08:20:50.556Z,11.80
2019-04-26T08:23:39.188Z,11.90
2019-04-26T08:25:56.321Z,11.90
2019-04-26T08:28:28.265Z,12.00
2019-04-26T08:30:59.479Z,11.90
2019-04-26T08:33:31.810Z,11.80
2019-04-26T08:36:03.926Z,11.90
2019-04-26T08:38:36.035Z,11.90
2019-04-26T08:41:08.123Z,11.90
2019-04-26T08:43:55.816Z,11.90
2019-04-26T08:46:32.302Z,11.90
2019-04-26T08:49:11.162Z,12.00
2019-04-26T08:51:41.830Z,11.90
2019-04-26T08:54:14.142Z,12.00
2019-04-26T08:56:46.220Z,11.90
2019-04-26T08:59:27.282Z,11.80
2019-04-26T09:02:16.071Z,11.70
2019-04-26T09:04:52.283Z,11.70
2019-04-26T09:07:25.952Z,11.70
2019-04-26T09:10:01.242Z,11.70
2019-04-26T09:12:29.833Z,11.60
2019-04-26T09:15:01.882Z,11.60
2019-04-26T09:17:32.186Z,11.60
2019-04-26T09:20:07.196Z,11.60
2019-04-26T09:22:51.598Z,11.60
2019-04-26T09:25:37.089Z,11.50
2019-04-26T09:28:22.778Z,11.50
2019-04-26T09:30:53.420Z,11.40
2019-04-26T09:33:31.869Z,11.50
2019-04-26T09:36:00.952Z,11.50
2019-04-26T09:38:30.030Z,11.50
2019-04-26T09:41:00.553Z,11.50
2019-04-26T09:43:34.046Z,11.50
2019-04-26T09:46:04.743Z,11.40
2019-04-26T09:48:36.794Z,11.30
2019-04-26T09:51:07.617Z,11.30
2019-04-26T09:53:39.565Z,11.30
2019-04-26T09:56:07.270Z,11.30
2019-04-26T09:58:36.308Z,11.30
2019-04-26T10:01:06.331Z,11.40
2019-04-26T10:03:35.456Z,11.50
2019-04-26T10:06:04.700Z,11.60
2019-04-26T10:08:33.651Z,11.70
2019-04-26T10:11:05.691Z,11.60
2019-04-26T10:13:44.354Z,11.60
2019-04-26T10:16:14.923Z,11.60
2019-04-26T10:18:45.540Z,11.70
2019-04-26T10:21:14.468Z,11.60
2019-04-26T10:23:45.021Z,11.60
2019-04-26T10:26:15.362Z,11.60
2019-04-26T10:28:46.825Z,11.60
2019-04-26T10:31:17.195Z,11.70
2019-04-26T10:33:45.790Z,11.80
2019-04-26T10:36:14.814Z,12.00
2019-04-26T10:38:43.850Z,12.20
2019-04-26T10:41:13.055Z,12.40
2019-04-26T10:43:42.120Z,12.50
2019-04-26T10:46:11.124Z,12.60
2019-04-26T10:48:41.392Z,12.40
2019-04-26T10:51:10.998Z,12.30
2019-04-26T10:53:41.606Z,12.20
2019-04-26T10:56:28.343Z,12.10
2019-04-26T10:59:06.096Z,12.20
2019-04-26T11:01:35.710Z,12.20
2019-04-26T11:04:04.754Z,12.50
2019-04-26T11:06:33.699Z,12.50
2019-04-26T11:09:02.761Z,12.40
2019-04-26T11:11:31.775Z,12.30
2019-04-26T11:14:00.736Z,12.30
2019-04-26T11:16:29.694Z,12.20
2019-04-26T11:19:01.257Z,12.20
2019-04-26T11:21:29.736Z,12.30
2019-04-26T11:23:58.777Z,12.30
2019-04-26T11:26:31.066Z,12.30
2019-04-26T11:28:58.452Z,12.30
2019-04-26T11:31:29.017Z,12.50
2019-04-26T11:34:05.005Z,12.50
2019-04-26T11:36:29.222Z,12.60
2019-04-26T11:39:01.294Z,12.70
2019-04-26T11:41:28.923Z,12.70
2019-04-26T11:43:57.896Z,12.70
2019-04-26T11:46:29.066Z,12.80
2019-04-26T11:48:59.157Z,12.80
2019-04-26T11:51:28.678Z,12.70
2019-04-26T11:53:57.805Z,12.80
2019-04-26T11:56:26.870Z,12.90
2019-04-26T11:58:56.784Z,12.90
2019-04-26T12:01:28.364Z,12.80
2019-04-26T12:04:13.847Z,12.80
2019-04-26T12:06:50.076Z,12.70
2019-04-26T12:09:20.766Z,12.70
2019-04-26T12:12:03.656Z,12.90
2019-04-26T12:14:20.856Z,13.00
2019-04-26T12:16:55.196Z,13.20
2019-04-26T12:19:22.117Z,13.30
2019-04-26T12:21:51.746Z,13.30
2019-04-26T12:24:20.684Z,13.30
2019-04-26T12:26:51.908Z,13.30
2019-04-26T12:29:20.320Z,13.30
2019-04-26T12:31:49.319Z,13.40
2019-04-26T12:34:19.109Z,13.40
2019-04-26T12:36:48.293Z,13.30
2019-04-26T12:39:17.594Z,13.20
2019-04-26T12:41:46.571Z,13.10
2019-04-26T12:44:15.584Z,13.10
2019-04-26T12:47:04.904Z,12.90
2019-04-26T12:49:35.311Z,12.90
2019-04-26T12:52:03.628Z,12.80
2019-04-26T12:54:32.673Z,12.80
2019-04-26T12:57:05.734Z,12.90
2019-04-26T12:59:43.543Z,12.90
2019-04-26T13:02:05.802Z,12.90
2019-04-26T13:04:36.370Z,12.90
2019-04-26T13:07:23.955Z,12.80
2019-04-26T13:09:50.565Z,12.70
2019-04-26T13:12:26.043Z,12.60
2019-04-26T13:14:59.136Z,12.60
2019-04-26T13:17:38.737Z,12.50
2019-04-26T13:20:08.122Z,12.40
2019-04-26T13:22:45.957Z,12.50
2019-04-26T13:25:15.669Z,12.50
2019-04-26T13:27:41.551Z,12.60
2019-04-26T13:30:10.624Z,12.60
2019-04-26T13:32:40.200Z,12.70
2019-04-26T13:35:11.424Z,12.80
2019-04-26T13:37:40.038Z,12.80
2019-04-26T13:40:09.119Z,12.90
2019-04-26T13:42:38.087Z,12.80
2019-04-26T13:45:08.828Z,12.90
2019-04-26T13:47:39.423Z,12.80
2019-04-26T13:50:26.204Z,12.80
2019-04-26T13:52:52.997Z,12.80
2019-04-26T13:55:25.352Z,12.70
2019-04-26T13:57:52.620Z,12.70
2019-04-26T14:00:23.330Z,12.70
2019-04-26T14:02:52.436Z,12.60
2019-04-26T14:05:21.414Z,12.60
2019-04-26T14:07:50.471Z,12.60
2019-04-26T14:10:19.548Z,12.60
2019-04-26T14:12:49.914Z,12.50
2019-04-26T14:15:19.339Z,12.50
2019-04-26T14:17:48.362Z,12.30
2019-04-26T14:20:19.195Z,12.30
2019-04-26T14:22:50.127Z,12.40
2019-04-26T14:25:23.421Z,12.50
2019-04-26T14:27:54.031Z,12.50
2019-04-26T14:30:23.082Z,12.60
2019-04-26T14:32:53.302Z,12.70
2019-04-26T14:35:22.774Z,12.70
2019-04-26T14:37:51.715Z,12.70
2019-04-26T14:40:20.819Z,12.70
2019-04-26T14:42:49.829Z,12.70
2019-04-26T14:45:23.797Z,12.70
2019-04-26T14:47:49.483Z,12.70
2019-04-26T14:50:18.518Z,12.70
2019-04-26T14:52:47.465Z,12.70
2019-04-26T14:55:21.040Z,12.70
2019-04-26T14:57:51.245Z,12.70
2019-04-26T15:00:21.176Z,12.80
2019-04-26T15:02:55.792Z,12.90
2019-04-26T15:05:24.306Z,13.00
2019-04-26T15:07:53.834Z,13.10
2019-04-26T15:10:24.708Z,13.20
2019-04-26T15:13:11.533Z,13.20
2019-04-26T15:15:26.814Z,13.20
2019-04-26T15:17:59.481Z,13.20
2019-04-26T15:20:26.599Z,13.20
2019-04-26T15:22:55.613Z,13.20
2019-04-26T15:25:24.623Z,13.20
2019-04-26T15:27:53.632Z,13.20
2019-04-26T15:30:23.945Z,13.20
2019-04-26T15:32:53.041Z,13.30
2019-04-26T15:35:23.229Z,13.30
2019-04-26T15:37:53.538Z,13.30
2019-04-26T15:40:36.093Z,13.30
2019-04-26T15:43:16.171Z,13.30
2019-04-26T15:45:49.898Z,13.20
2019-04-26T15:48:36.234Z,13.20
2019-04-26T15:51:05.370Z,13.10
2019-04-26T15:53:34.299Z,13.00
2019-04-26T15:56:03.290Z,13.00
2019-04-26T15:58:32.267Z,13.10
2019-04-26T16:01:02.781Z,13.10
2019-04-26T16:03:32.795Z,13.30
2019-04-26T16:06:07.057Z,13.40
2019-04-26T16:08:33.518Z,13.50
2019-04-26T16:11:03.102Z,13.50
2019-04-26T16:13:32.366Z,13.60
2019-04-26T16:16:02.076Z,13.50
2019-04-26T16:18:32.333Z,13.60
2019-04-26T16:21:01.977Z,13.60
2019-04-26T16:23:40.553Z,13.70
2019-04-26T16:26:02.793Z,13.70
2019-04-26T16:28:43.019Z,13.70
2019-04-26T16:31:12.243Z,13.80
2019-04-26T16:33:46.548Z,13.80
2019-04-26T16:36:15.527Z,13.80
2019-04-26T16:41:15.271Z,13.70
2019-04-26T16:43:50.845Z,13.60
2019-04-26T16:46:20.367Z,13.60
2019-04-26T16:48:45.669Z,13.60
2019-04-26T16:51:14.644Z,13.50
2019-04-26T16:54:02.808Z,13.40
2019-04-26T16:56:14.480Z,13.30
2019-04-26T16:58:45.351Z,13.30
2019-04-26T17:01:15.119Z,13.20
2019-04-26T17:03:47.992Z,13.20
2019-04-26T17:06:17.449Z,13.20
2019-04-26T17:08:50.038Z,13.10
2019-04-26T17:09:37.221Z,13.70
2019-04-26T17:11:17.123Z,13.10
2019-04-26T17:13:50.814Z,13.00
2019-04-26T17:16:16.791Z,13.00
2019-04-26T17:18:45.862Z,13.00
2019-04-26T17:21:17.699Z,13.00
2019-04-26T17:24:09.507Z,13.00
2019-04-26T17:26:39.002Z,13.00
2019-04-26T17:29:08.099Z,12.90
2019-04-26T17:31:37.042Z,12.90
2019-04-26T17:34:07.510Z,13.00
2019-04-26T17:36:36.506Z,12.90
2019-04-26T17:39:11.032Z,12.90
2019-04-26T17:41:45.075Z,12.80
2019-04-26T17:44:13.348Z,12.80
2019-04-26T17:46:42.535Z,12.80
2019-04-26T17:49:11.572Z,12.80
2019-04-26T17:51:44.169Z,12.70
2019-04-26T17:54:33.569Z,12.70
2019-04-26T17:56:42.339Z,12.60
2019-04-26T17:59:30.141Z,12.60
2019-04-26T18:01:47.692Z,12.60
2019-04-26T18:04:13.009Z,12.60
2019-04-26T18:06:45.362Z,12.50
2019-04-26T18:09:37.680Z,12.50
2019-04-26T18:11:43.622Z,12.40
2019-04-26T18:14:21.220Z,12.30
2019-04-26T18:16:45.547Z,12.30
2019-04-26T18:19:16.213Z,12.20
2019-04-26T18:21:49.512Z,12.20
2019-04-26T18:24:17.575Z,12.10
2019-04-26T18:26:46.612Z,12.10
2019-04-26T18:29:15.656Z,12.00
2019-04-26T18:31:44.985Z,12.00
2019-04-26T18:34:13.935Z,11.90
2019-04-26T18:36:43.088Z,11.90
2019-04-26T18:39:12.204Z,11.90
2019-04-26T18:41:41.329Z,11.90
2019-04-26T18:44:10.341Z,11.90
2019-04-26T18:46:46.930Z,11.90
2019-04-26T18:49:18.203Z,11.80
2019-04-26T18:51:48.128Z,11.80
2019-04-26T18:54:23.838Z,11.80
2019-04-26T18:56:55.142Z,11.70
2019-04-26T18:59:24.317Z,11.70
2019-04-26T19:01:54.494Z,11.60
2019-04-26T19:04:23.734Z,11.60
2019-04-26T19:06:52.976Z,11.60
2019-04-26T19:09:23.930Z,11.50
2019-04-26T19:11:55.986Z,11.50
2019-04-26T19:14:49.042Z,11.40
2019-04-26T19:17:16.581Z,11.40
2019-04-26T19:19:56.144Z,11.30
2019-04-26T19:22:25.395Z,11.30
2019-04-26T19:24:57.565Z,11.30
2019-04-26T19:27:27.609Z,11.20
2019-04-26T19:29:57.854Z,11.30
2019-04-26T19:32:26.989Z,11.30
2019-04-26T19:34:56.012Z,11.20
2019-04-26T19:37:25.054Z,11.20
2019-04-26T19:39:54.024Z,11.10
2019-04-26T19:42:22.983Z,11.10
2019-04-26T19:45:10.824Z,11.10
2019-04-26T19:47:24.447Z,11.10
2019-04-26T19:49:58.094Z,11.00
2019-04-26T19:52:45.252Z,11.00
2019-04-26T19:55:32.951Z,11.00
2019-04-26T19:58:09.574Z,11.00
2019-04-26T20:00:43.424Z,10.90
2019-04-26T20:03:13.451Z,10.90
2019-04-26T20:05:44.162Z,10.90
2019-04-26T20:08:12.226Z,10.90
2019-04-26T20:10:45.933Z,10.80
2019-04-26T20:13:16.256Z,10.80
2019-04-26T20:15:45.900Z,10.80
2019-04-26T20:18:17.461Z,10.80
2019-04-26T20:20:45.735Z,10.70
2019-04-26T20:23:19.206Z,10.70
2019-04-26T20:25:46.990Z,10.70
2019-04-26T20:28:15.984Z,10.70
2019-04-26T20:30:51.401Z,10.60
2019-04-26T20:33:20.359Z,10.60
2019-04-26T20:35:49.528Z,10.50
2019-04-26T20:38:18.563Z,10.50
2019-04-26T20:40:48.790Z,10.40
2019-04-26T20:43:24.514Z,10.40
2019-04-26T20:46:08.830Z,10.40
2019-04-26T20:48:21.381Z,10.30
2019-04-26T20:50:52.001Z,10.30
2019-04-26T20:53:21.664Z,10.30
2019-04-26T20:55:52.697Z,10.20
2019-04-26T20:58:21.696Z,10.20
2019-04-26T21:00:54.494Z,10.20
2019-04-26T21:03:27.547Z,10.10
2019-04-26T21:05:59.000Z,10.10
2019-04-26T21:08:26.874Z,10.10
2019-04-26T21:11:00.143Z,10.10
2019-04-26T21:13:32.437Z,10.00
2019-04-26T21:16:03.681Z,10.00
2019-04-26T21:18:33.552Z,10.00
2019-04-26T21:21:05.825Z,10.00
2019-04-26T21:23:39.872Z,9.90
2019-04-26T21:26:12.365Z,9.90
2019-04-26T21:28:47.518Z,9.80
2019-04-26T21:31:26.279Z,9.90
2019-04-26T21:34:03.710Z,9.80
2019-04-26T21:36:53.687Z,9.80
2019-04-26T21:39:27.121Z,9.80
2019-04-26T21:41:57.737Z,9.80
2019-04-26T21:44:26.719Z,9.80
2019-04-26T21:46:58.634Z,9.80
2019-04-26T21:49:26.597Z,9.80
2019-04-26T21:51:55.931Z,9.80
2019-04-26T21:54:25.340Z,9.80
2019-04-26T21:56:54.382Z,9.80
2019-04-26T21:59:24.373Z,9.90
2019-04-26T22:01:58.861Z,9.80
2019-04-26T22:04:24.585Z,9.80
2019-04-26T22:06:55.626Z,9.80
2019-04-26T22:09:43.073Z,9.80
2019-04-26T22:12:13.747Z,9.80
2019-04-26T22:14:50.657Z,9.80
2019-04-26T22:17:24.176Z,9.70
2019-04-26T22:19:57.914Z,9.70
2019-04-26T22:22:44.846Z,9.60
2019-04-26T22:25:14.687Z,9.60
2019-04-26T22:27:43.771Z,9.60
2019-04-26T22:30:14.527Z,9.50
2019-04-26T22:32:43.508Z,9.50
2019-04-26T22:35:13.472Z,9.40
2019-04-26T22:37:45.604Z,9.40
2019-04-26T22:40:17.014Z,9.40
2019-04-26T22:42:46.092Z,9.30
2019-04-26T22:45:16.873Z,9.30
2019-04-26T22:48:03.601Z,9.20
2019-04-26T22:50:33.581Z,9.20
2019-04-26T22:53:04.012Z,9.20
2019-04-26T22:55:33.447Z,9.20
2019-04-26T22:58:04.127Z,9.20
2019-04-26T23:00:37.066Z,9.20
2019-04-26T23:03:07.272Z,9.20
2019-04-26T23:05:39.246Z,9.20
2019-04-26T23:08:08.950Z,9.10
2019-04-26T23:10:39.615Z,9.10
2019-04-26T23:13:10.225Z,9.10
2019-04-26T23:15:43.144Z,9.00
2019-04-26T23:18:33.175Z,9.00
2019-04-26T23:23:55.346Z,8.90
2019-04-26T23:26:24.873Z,8.80
2019-04-26T23:28:54.152Z,8.70
2019-04-26T23:31:23.750Z,8.60
2019-04-26T23:33:53.918Z,8.60
2019-04-26T23:36:27.270Z,8.60
2019-04-26T23:38:56.214Z,8.50
2019-04-26T23:41:26.228Z,8.50
2019-04-26T23:44:02.587Z,8.40
2019-04-26T23:46:26.129Z,8.40
2019-04-26T23:48:55.152Z,8.40
2019-04-26T23:51:26.177Z,8.30
2019-04-26T23:53:57.751Z,8.30
2019-04-26T23:56:27.033Z,8.30
2019-04-26T23:58:56.017Z,8.20
